createdAt,value
2023-04-21T00:01:48.542Z,10.03
2023-04-21T00:04:20.416Z,9.99
2023-04-21T00:06:50.988Z,9.96
2023-04-21T00:09:24.188Z,9.93
2023-04-21T00:11:54.612Z,9.90
2023-04-21T00:14:25.177Z,9.78
2023-04-21T00:16:57.171Z,9.78
2023-04-21T00:19:27.517Z,9.66
2023-04-21T00:21:59.155Z,9.59
2023-04-21T00:24:34.471Z,9.56
2023-04-21T00:27:04.770Z,9.51
2023-04-21T00:29:35.297Z,9.55
2023-04-21T00:32:10.310Z,9.55
2023-04-21T00:34:42.709Z,9.52
2023-04-21T00:37:13.108Z,9.53
2023-04-21T00:39:46.390Z,9.54
2023-04-21T00:42:19.126Z,9.54
2023-04-21T00:44:49.538Z,9.55
2023-04-21T00:47:19.895Z,9.55
2023-04-21T00:49:50.292Z,9.49
2023-04-21T00:52:21.676Z,9.39
2023-04-21T00:54:54.689Z,9.41
2023-04-21T00:57:25.109Z,9.48
2023-04-21T01:00:11.014Z,9.48
2023-04-21T01:02:42.774Z,9.51
2023-04-21T01:05:14.890Z,9.54
2023-04-21T01:07:45.388Z,9.55
2023-04-21T01:10:18.913Z,9.65
2023-04-21T01:12:51.066Z,9.70
2023-04-21T01:15:22.261Z,9.63
2023-04-21T01:17:54.548Z,9.67
2023-04-21T01:20:25.111Z,9.61
2023-04-21T01:22:58.094Z,9.64
2023-04-21T01:25:28.966Z,9.62
2023-04-21T01:27:59.770Z,9.61
2023-04-21T01:30:30.561Z,9.59
2023-04-21T01:33:12.072Z,9.61
2023-04-21T01:35:50.476Z,9.67
2023-04-21T01:38:26.354Z,9.57
2023-04-21T01:40:57.568Z,9.59
2023-04-21T01:43:28.939Z,9.51
2023-04-21T01:46:00.411Z,9.50
2023-04-21T01:48:31.025Z,9.36
2023-04-21T01:51:03.219Z,9.29
2023-04-21T01:53:36.515Z,9.30
2023-04-21T01:56:07.417Z,9.31
2023-04-21T01:58:37.775Z,9.32
2023-04-21T02:01:08.567Z,9.27
2023-04-21T02:03:39.754Z,9.16
2023-04-21T02:06:11.956Z,9.26
2023-04-21T02:08:46.705Z,9.29
2023-04-21T02:11:18.389Z,9.32
2023-04-21T02:13:48.899Z,9.28
2023-04-21T02:16:20.812Z,9.36
2023-04-21T02:18:52.553Z,9.28
2023-04-21T02:21:23.747Z,9.28
2023-04-21T02:23:59.549Z,9.30
2023-04-21T02:26:30.165Z,9.36
2023-04-21T02:29:00.923Z,9.42
2023-04-21T02:31:31.636Z,9.41
2023-04-21T02:34:02.038Z,9.44
2023-04-21T02:36:32.585Z,9.45
2023-04-21T02:39:05.969Z,9.47
2023-04-21T02:41:36.680Z,9.44
2023-04-21T02:44:09.903Z,9.40
2023-04-21T02:46:43.930Z,9.35
2023-04-21T02:49:16.584Z,9.33
2023-04-21T02:51:47.157Z,9.38
2023-04-21T02:54:20.246Z,9.38
2023-04-21T02:56:53.723Z,9.44
2023-04-21T02:59:24.092Z,9.45
2023-04-21T03:01:55.183Z,9.44
2023-04-21T03:04:26.635Z,9.48
2023-04-21T03:06:57.187Z,9.42
2023-04-21T03:09:30.477Z,9.40
2023-04-21T03:12:01.652Z,9.27
2023-04-21T03:14:32.182Z,9.30
2023-04-21T03:17:02.983Z,9.33
2023-04-21T03:19:40.652Z,9.39
2023-04-21T03:22:11.198Z,9.41
2023-04-21T03:24:44.391Z,9.53
2023-04-21T03:27:14.988Z,9.55
2023-04-21T03:29:45.540Z,9.49
2023-04-21T03:32:16.178Z,9.63
2023-04-21T03:34:46.745Z,9.69
2023-04-21T03:37:17.413Z,9.73
2023-04-21T03:39:50.857Z,9.74
2023-04-21T03:42:26.409Z,9.78
2023-04-21T03:44:56.817Z,9.72
2023-04-21T03:47:30.406Z,9.72
2023-04-21T03:50:07.561Z,9.78
2023-04-21T03:52:38.214Z,9.81
2023-04-21T03:55:12.461Z,9.81
2023-04-21T03:57:46.894Z,9.86
2023-04-21T04:00:21.459Z,9.88
2023-04-21T04:02:52.075Z,9.89
2023-04-21T04:05:22.944Z,9.88
2023-04-21T04:07:53.772Z,9.78
2023-04-21T04:10:28.065Z,9.77
2023-04-21T04:12:58.845Z,9.77
2023-04-21T04:15:29.249Z,9.76
2023-04-21T04:17:59.566Z,9.73
2023-04-21T04:20:29.868Z,9.66
2023-04-21T04:23:00.284Z,9.66
2023-04-21T04:25:33.617Z,9.60
2023-04-21T04:28:04.094Z,9.60
2023-04-21T04:30:35.592Z,9.59
2023-04-21T04:33:06.204Z,9.63
2023-04-21T04:35:39.604Z,9.67
2023-04-21T04:38:10.414Z,9.69
2023-04-21T04:40:43.902Z,9.71
2023-04-21T04:43:17.250Z,9.77
2023-04-21T04:45:47.715Z,9.78
2023-04-21T04:48:18.171Z,9.81
2023-04-21T04:50:48.754Z,9.87
2023-04-21T04:53:19.118Z,9.94
2023-04-21T04:55:52.199Z,9.91
2023-04-21T04:58:23.026Z,9.86
2023-04-21T05:00:53.427Z,9.88
2023-04-21T05:03:23.918Z,9.91
2023-04-21T05:05:54.572Z,9.99
2023-04-21T05:08:24.939Z,10.08
2023-04-21T05:11:00.373Z,10.20
2023-04-21T05:13:30.799Z,10.29
2023-04-21T05:16:02.430Z,10.36
2023-04-21T05:18:32.833Z,10.50
2023-04-21T05:21:03.048Z,10.59
2023-04-21T05:23:33.283Z,10.71
2023-04-21T05:26:06.212Z,10.81
2023-04-21T05:28:36.846Z,10.91
2023-04-21T05:31:07.211Z,11.01
2023-04-21T05:33:37.446Z,11.09
2023-04-21T05:36:10.503Z,11.18
2023-04-21T05:38:41.178Z,11.20
2023-04-21T05:41:16.306Z,11.27
2023-04-21T05:43:47.820Z,11.35
2023-04-21T05:46:18.187Z,11.48
2023-04-21T05:48:48.386Z,11.54
2023-04-21T05:51:20.053Z,11.68
2023-04-21T05:53:53.313Z,11.84
2023-04-21T05:56:26.265Z,12.02
2023-04-21T05:58:56.483Z,12.12
2023-04-21T06:01:26.764Z,12.33
2023-04-21T06:03:59.309Z,12.46
2023-04-21T06:06:30.187Z,12.56
2023-04-21T06:09:03.123Z,12.56
2023-04-21T06:11:38.248Z,12.77
2023-04-21T06:14:08.615Z,12.87
2023-04-21T06:16:39.028Z,13.04
2023-04-21T06:19:09.454Z,13.09
2023-04-21T06:21:39.755Z,13.25
2023-04-21T06:24:10.735Z,13.52
2023-04-21T06:26:43.570Z,13.84
2023-04-21T06:29:13.751Z,14.14
2023-04-21T06:31:44.089Z,14.42
2023-04-21T06:34:14.305Z,14.71
2023-04-21T06:36:44.682Z,14.99
2023-04-21T06:39:14.908Z,15.27
2023-04-21T06:41:47.756Z,15.57
2023-04-21T06:44:18.299Z,15.80
2023-04-21T06:46:49.018Z,15.98
2023-04-21T06:49:19.678Z,16.22
2023-04-21T06:51:50.141Z,16.42
2023-04-21T06:54:20.426Z,16.55
2023-04-21T06:56:58.368Z,16.75
2023-04-21T06:59:28.732Z,16.99
2023-04-21T07:02:01.931Z,17.19
2023-04-21T07:04:32.655Z,17.36
2023-04-21T07:07:03.316Z,17.54
2023-04-21T07:09:36.727Z,17.77
2023-04-21T07:12:09.875Z,17.93
2023-04-21T07:14:40.244Z,18.03
2023-04-21T07:17:10.722Z,18.14
2023-04-21T07:19:41.069Z,18.29
2023-04-21T07:22:11.561Z,18.49
2023-04-21T07:24:41.909Z,18.75
2023-04-21T07:27:15.317Z,18.82
2023-04-21T07:29:45.562Z,18.99
2023-04-21T07:32:15.949Z,19.14
2023-04-21T07:34:49.957Z,19.25
2023-04-21T07:37:20.959Z,19.31
2023-04-21T07:39:51.420Z,19.35
2023-04-21T07:42:24.739Z,19.50
2023-04-21T07:44:56.352Z,19.57
2023-04-21T07:47:26.809Z,19.78
2023-04-21T07:49:58.723Z,19.91
2023-04-21T07:52:29.230Z,19.89
2023-04-21T07:54:59.499Z,20.02
2023-04-21T07:57:34.776Z,20.16
2023-04-21T08:00:05.208Z,20.22
2023-04-21T08:02:42.950Z,20.34
2023-04-21T08:05:13.485Z,20.38
2023-04-21T08:07:43.989Z,20.66
2023-04-21T08:10:14.491Z,20.98
2023-04-21T08:12:50.397Z,21.45
2023-04-21T08:15:20.639Z,21.91
2023-04-21T08:17:50.957Z,22.29
2023-04-21T08:20:21.223Z,22.86
2023-04-21T08:22:51.632Z,23.41
2023-04-21T08:25:24.192Z,23.97
2023-04-21T08:27:57.147Z,24.55
2023-04-21T08:30:28.621Z,25.02
2023-04-21T08:32:58.983Z,25.68
2023-04-21T08:35:32.298Z,26.04
2023-04-21T08:38:03.169Z,26.46
2023-04-21T08:40:36.709Z,26.66
2023-04-21T08:43:11.184Z,26.81
2023-04-21T08:45:42.891Z,26.88
2023-04-21T08:48:18.912Z,27.09
2023-04-21T08:50:50.585Z,27.35
2023-04-21T08:53:21.114Z,27.40
2023-04-21T08:56:03.643Z,27.50
2023-04-21T08:58:43.357Z,27.58
2023-04-21T09:01:13.662Z,27.81
2023-04-21T09:03:44.158Z,28.24
2023-04-21T09:06:15.367Z,28.15
2023-04-21T09:08:46.689Z,27.94
2023-04-21T09:11:17.892Z,27.94
2023-04-21T09:13:51.152Z,28.56
2023-04-21T09:16:24.023Z,28.80
2023-04-21T09:18:54.462Z,28.90
2023-04-21T09:21:32.416Z,29.16
2023-04-21T09:24:08.715Z,29.21
2023-04-21T09:26:39.163Z,29.12
2023-04-21T09:29:12.373Z,29.31
2023-04-21T09:31:42.742Z,29.37
2023-04-21T09:34:21.799Z,28.93
2023-04-21T09:36:52.204Z,29.15
2023-04-21T09:39:40.566Z,28.18
2023-04-21T09:42:17.025Z,28.89
2023-04-21T09:44:56.282Z,28.96
2023-04-21T09:47:38.715Z,29.16
2023-04-21T09:50:12.539Z,29.10
2023-04-21T09:52:43.645Z,27.85
2023-04-21T09:55:15.860Z,27.95
2023-04-21T09:57:48.633Z,27.46
2023-04-21T10:00:25.647Z,26.97
2023-04-21T10:02:57.400Z,26.96
2023-04-21T10:05:28.176Z,25.52
2023-04-21T10:07:58.966Z,25.38
2023-04-21T10:10:32.104Z,25.86
2023-04-21T10:13:05.884Z,25.90
2023-04-21T10:15:41.917Z,26.37
2023-04-21T10:18:30.291Z,26.23
2023-04-21T10:21:02.264Z,24.77
2023-04-21T10:23:39.952Z,25.67
2023-04-21T10:26:13.328Z,25.39
2023-04-21T10:28:48.990Z,26.09
2023-04-21T10:31:33.003Z,26.76
2023-04-21T10:34:19.609Z,27.48
2023-04-21T10:37:12.012Z,28.33
2023-04-21T10:39:58.114Z,28.72
2023-04-21T10:42:30.357Z,29.51
2023-04-21T10:45:21.506Z,30.02
2023-04-21T10:47:56.185Z,28.65
2023-04-21T10:50:28.502Z,28.37
2023-04-21T10:53:00.938Z,28.84
2023-04-21T10:55:32.718Z,29.23
2023-04-21T10:58:06.101Z,28.98
2023-04-21T11:00:38.138Z,28.67
2023-04-21T11:03:11.409Z,29.38
2023-04-21T11:05:42.692Z,29.87
2023-04-21T11:08:15.366Z,30.01
2023-04-21T11:10:47.138Z,29.79
2023-04-21T11:13:17.354Z,30.74
2023-04-21T11:15:59.550Z,31.44
2023-04-21T11:18:53.383Z,30.53
2023-04-21T11:21:25.026Z,30.72
2023-04-21T11:23:56.638Z,29.58
2023-04-21T11:26:34.751Z,28.73
2023-04-21T11:29:09.432Z,28.46
2023-04-21T11:31:40.835Z,27.73
2023-04-21T11:34:15.612Z,26.66
2023-04-21T11:36:46.904Z,26.60
2023-04-21T11:39:21.652Z,27.91
2023-04-21T11:41:54.139Z,28.23
2023-04-21T11:44:35.132Z,28.76
2023-04-21T11:47:16.253Z,27.41
2023-04-21T11:49:55.372Z,26.68
2023-04-21T11:52:26.942Z,26.93
2023-04-21T11:55:02.241Z,27.92
2023-04-21T11:57:33.739Z,27.89
2023-04-21T12:00:04.835Z,29.24
2023-04-21T12:02:35.734Z,30.01
2023-04-21T12:05:10.445Z,30.88
2023-04-21T12:07:42.202Z,29.50
2023-04-21T12:10:13.869Z,29.48
2023-04-21T12:12:45.073Z,30.64
2023-04-21T12:15:20.344Z,31.56
2023-04-21T12:17:52.347Z,31.63
2023-04-21T12:20:27.634Z,32.35
2023-04-21T12:22:57.946Z,32.64
2023-04-21T12:25:29.268Z,32.86
2023-04-21T12:28:01.967Z,33.76
2023-04-21T12:30:33.515Z,34.36
2023-04-21T12:33:06.313Z,33.17
2023-04-21T12:35:39.413Z,33.53
2023-04-21T12:38:09.788Z,32.59
2023-04-21T12:40:42.811Z,30.59
2023-04-21T12:43:13.071Z,29.36
2023-04-21T12:45:43.357Z,31.11
2023-04-21T12:48:16.319Z,32.22
2023-04-21T12:50:49.629Z,31.72
2023-04-21T12:53:19.868Z,31.03
2023-04-21T12:56:03.462Z,29.08
2023-04-21T12:58:37.136Z,28.76
2023-04-21T13:01:08.542Z,27.69
2023-04-21T13:03:39.039Z,26.78
2023-04-21T13:06:14.868Z,28.28
2023-04-21T13:08:45.055Z,29.42
2023-04-21T13:11:15.277Z,29.88
2023-04-21T13:13:45.865Z,31.31
2023-04-21T13:16:18.213Z,32.08
2023-04-21T13:18:48.962Z,31.81
2023-04-21T13:21:21.822Z,29.90
2023-04-21T13:23:52.028Z,28.44
2023-04-21T13:26:22.254Z,27.33
2023-04-21T13:28:52.586Z,26.49
2023-04-21T13:31:22.924Z,25.43
2023-04-21T13:33:54.160Z,25.17
2023-04-21T13:36:27.230Z,25.24
2023-04-21T13:38:57.608Z,24.94
2023-04-21T13:41:31.042Z,26.00
2023-04-21T13:44:01.225Z,25.01
2023-04-21T13:46:31.806Z,24.61
2023-04-21T13:49:05.347Z,25.94
2023-04-21T13:51:38.246Z,27.76
2023-04-21T13:54:10.239Z,29.45
2023-04-21T13:56:41.155Z,29.71
2023-04-21T13:59:11.567Z,30.63
2023-04-21T14:01:41.935Z,31.14
2023-04-21T14:04:12.417Z,31.48
2023-04-21T14:06:45.491Z,31.96
2023-04-21T14:09:15.952Z,32.48
2023-04-21T14:11:46.354Z,33.15
2023-04-21T14:14:24.193Z,33.12
2023-04-21T14:17:01.983Z,31.67
2023-04-21T14:19:33.001Z,30.25
2023-04-21T14:22:05.984Z,29.57
2023-04-21T14:24:36.279Z,31.03
2023-04-21T14:27:06.673Z,30.91
2023-04-21T14:29:37.056Z,30.79
2023-04-21T14:32:07.381Z,30.99
2023-04-21T14:34:37.640Z,31.18
2023-04-21T14:37:10.747Z,31.60
2023-04-21T14:39:41.492Z,31.97
2023-04-21T14:42:11.689Z,30.19
2023-04-21T14:44:41.974Z,27.93
2023-04-21T14:47:12.516Z,28.40
2023-04-21T14:49:42.741Z,29.59
2023-04-21T14:52:15.752Z,29.16
2023-04-21T14:54:46.047Z,29.51
2023-04-21T14:57:20.609Z,30.62
2023-04-21T14:59:52.821Z,31.11
2023-04-21T15:02:23.871Z,30.50
2023-04-21T15:04:54.303Z,30.96
2023-04-21T15:07:27.275Z,31.10
2023-04-21T15:09:57.621Z,30.33
2023-04-21T15:12:28.164Z,30.76
2023-04-21T15:14:58.846Z,31.35
2023-04-21T15:17:29.303Z,31.73
2023-04-21T15:19:59.740Z,31.87
2023-04-21T15:22:33.140Z,31.80
2023-04-21T15:25:03.392Z,31.43
2023-04-21T15:27:33.788Z,31.29
2023-04-21T15:30:04.707Z,31.22
2023-04-21T15:32:35.031Z,30.87
2023-04-21T15:35:05.304Z,30.08
2023-04-21T15:37:38.372Z,29.00
2023-04-21T15:40:10.400Z,27.15
2023-04-21T15:42:40.744Z,25.82
2023-04-21T15:45:12.552Z,24.89
2023-04-21T15:47:42.852Z,24.20
2023-04-21T15:50:16.320Z,23.57
2023-04-21T15:52:49.196Z,23.20
2023-04-21T15:55:21.626Z,23.55
2023-04-21T15:57:51.983Z,23.52
2023-04-21T16:00:22.737Z,23.36
2023-04-21T16:02:53.199Z,22.92
2023-04-21T16:05:27.466Z,22.69
2023-04-21T16:08:01.874Z,22.37
2023-04-21T16:10:32.195Z,22.21
2023-04-21T16:13:02.435Z,21.92
2023-04-21T16:15:32.683Z,21.73
2023-04-21T16:18:06.655Z,21.66
2023-04-21T16:20:37.406Z,21.53
2023-04-21T16:23:10.324Z,21.37
2023-04-21T16:25:40.766Z,21.30
2023-04-21T16:28:11.726Z,21.35
2023-04-21T16:30:43.777Z,21.22
2023-04-21T16:33:14.787Z,21.07
2023-04-21T16:35:45.172Z,20.94
2023-04-21T16:38:18.119Z,20.81
2023-04-21T16:40:48.999Z,20.74
2023-04-21T16:43:19.583Z,20.66
2023-04-21T16:45:49.865Z,20.65
2023-04-21T16:48:20.266Z,20.64
2023-04-21T16:50:54.503Z,20.66
2023-04-21T16:53:38.794Z,20.54
2023-04-21T16:56:13.074Z,20.51
2023-04-21T16:58:43.325Z,20.50
2023-04-21T17:01:13.618Z,20.52
2023-04-21T17:03:44.457Z,20.48
2023-04-21T17:06:19.642Z,20.39
2023-04-21T17:08:59.705Z,20.32
2023-04-21T17:11:31.574Z,20.36
2023-04-21T17:14:01.937Z,20.36
2023-04-21T17:16:32.229Z,20.31
2023-04-21T17:19:02.760Z,20.27
2023-04-21T17:21:33.650Z,20.17
2023-04-21T17:24:06.916Z,20.09
2023-04-21T17:26:37.801Z,19.97
2023-04-21T17:29:08.593Z,19.88
2023-04-21T17:31:38.820Z,19.84
2023-04-21T17:34:09.300Z,19.84
2023-04-21T17:36:40.357Z,19.75
2023-04-21T17:39:14.309Z,19.73
2023-04-21T17:41:46.534Z,19.70
2023-04-21T17:44:16.749Z,19.60
2023-04-21T17:46:47.345Z,19.52
2023-04-21T17:49:18.489Z,19.50
2023-04-21T17:51:48.872Z,19.47
2023-04-21T17:54:21.977Z,19.37
2023-04-21T17:56:52.338Z,19.30
2023-04-21T17:59:22.589Z,19.29
2023-04-21T18:01:52.908Z,19.24
2023-04-21T18:04:27.507Z,19.18
2023-04-21T18:06:59.821Z,19.19
2023-04-21T18:09:32.767Z,19.10
2023-04-21T18:12:02.968Z,19.01
2023-04-21T18:14:35.774Z,18.99
2023-04-21T18:17:06.228Z,18.96
2023-04-21T18:19:36.568Z,18.92
2023-04-21T18:22:09.283Z,18.88
2023-04-21T18:24:42.122Z,18.83
2023-04-21T18:27:14.155Z,18.74
2023-04-21T18:29:44.385Z,18.70
2023-04-21T18:32:14.735Z,18.65
2023-04-21T18:34:45.075Z,18.61
2023-04-21T18:37:15.316Z,18.56
2023-04-21T18:39:48.241Z,18.45
2023-04-21T18:42:18.719Z,18.36
2023-04-21T18:44:50.075Z,18.37
2023-04-21T18:47:20.860Z,18.33
2023-04-21T18:49:51.792Z,18.28
2023-04-21T18:52:27.114Z,18.24
2023-04-21T18:54:59.977Z,18.18
2023-04-21T18:57:30.738Z,18.12
2023-04-21T19:00:01.169Z,18.03
2023-04-21T19:02:32.509Z,17.95
2023-04-21T19:05:03.464Z,17.92
2023-04-21T19:07:33.917Z,17.90
2023-04-21T19:10:07.538Z,17.85
2023-04-21T19:12:37.844Z,17.77
2023-04-21T19:15:09.380Z,17.70
2023-04-21T19:17:39.870Z,17.63
2023-04-21T19:20:11.618Z,17.54
2023-04-21T19:22:42.051Z,17.47
2023-04-21T19:25:15.119Z,17.46
2023-04-21T19:27:46.615Z,17.39
2023-04-21T19:30:17.483Z,17.38
2023-04-21T19:32:49.200Z,17.35
2023-04-21T19:35:19.726Z,17.33
2023-04-21T19:37:50.253Z,17.33
2023-04-21T19:40:23.317Z,17.31
2023-04-21T19:42:53.634Z,17.29
2023-04-21T19:45:23.998Z,17.28
2023-04-21T19:47:54.846Z,17.24
2023-04-21T19:50:25.594Z,17.24
2023-04-21T19:52:55.961Z,17.19
2023-04-21T19:55:31.150Z,17.17
2023-04-21T19:58:01.684Z,17.18
2023-04-21T20:00:32.120Z,17.14
2023-04-21T20:03:02.634Z,17.14
2023-04-21T20:05:32.909Z,17.08
2023-04-21T20:08:03.145Z,17.08
2023-04-21T20:10:37.990Z,17.06
2023-04-21T20:13:08.213Z,17.05
2023-04-21T20:15:39.548Z,17.04
2023-04-21T20:18:10.201Z,17.00
2023-04-21T20:20:40.800Z,16.95
2023-04-21T20:23:11.051Z,16.98
2023-04-21T20:25:44.167Z,16.97
2023-04-21T20:28:14.414Z,16.94
2023-04-21T20:30:45.132Z,16.92
2023-04-21T20:33:17.383Z,16.92
2023-04-21T20:35:48.059Z,16.94
2023-04-21T20:38:19.041Z,16.91
2023-04-21T20:40:52.628Z,16.89
2023-04-21T20:43:23.225Z,16.90
2023-04-21T20:45:53.752Z,16.87
2023-04-21T20:48:24.107Z,16.88
2023-04-21T20:50:54.376Z,16.87
2023-04-21T20:53:24.905Z,16.86
2023-04-21T20:55:57.866Z,16.85
2023-04-21T20:58:28.232Z,16.82
2023-04-21T21:00:58.646Z,16.78
2023-04-21T21:03:29.239Z,16.73
2023-04-21T21:05:59.601Z,16.68
2023-04-21T21:08:30.159Z,16.61
2023-04-21T21:11:03.151Z,16.54
2023-04-21T21:13:35.499Z,16.51
2023-04-21T21:16:05.769Z,16.48
2023-04-21T21:18:36.340Z,16.40
2023-04-21T21:21:06.986Z,16.37
2023-04-21T21:23:40.983Z,16.29
2023-04-21T21:26:13.960Z,16.35
2023-04-21T21:28:44.354Z,16.37
2023-04-21T21:31:15.635Z,16.37
2023-04-21T21:33:45.988Z,16.27
2023-04-21T21:36:19.524Z,16.24
2023-04-21T21:38:50.014Z,16.24
2023-04-21T21:41:23.441Z,16.15
2023-04-21T21:43:56.555Z,16.10
2023-04-21T21:46:27.008Z,16.08
2023-04-21T21:48:57.390Z,16.02
2023-04-21T21:51:29.124Z,15.96
2023-04-21T21:54:02.516Z,15.79
2023-04-21T21:56:35.599Z,15.74
2023-04-21T21:59:06.550Z,15.70
2023-04-21T22:01:37.132Z,15.68
2023-04-21T22:04:07.931Z,15.62
2023-04-21T22:06:38.469Z,15.52
2023-04-21T22:09:09.274Z,15.52
2023-04-21T22:11:42.126Z,15.49
2023-04-21T22:14:22.817Z,15.50
2023-04-21T22:16:54.117Z,15.50
2023-04-21T22:19:24.426Z,15.48
2023-04-21T22:21:54.907Z,15.52
2023-04-21T22:24:26.601Z,15.54
2023-04-21T22:26:59.462Z,15.49
2023-04-21T22:29:29.808Z,15.50
2023-04-21T22:32:00.087Z,15.48
2023-04-21T22:34:30.615Z,15.36
2023-04-21T22:37:01.213Z,15.31
2023-04-21T22:39:31.888Z,15.27
2023-04-21T22:42:04.854Z,15.25
2023-04-21T22:44:35.127Z,15.15
2023-04-21T22:47:06.082Z,15.20
2023-04-21T22:49:39.093Z,15.01
2023-04-21T22:52:09.719Z,14.88
2023-04-21T22:54:41.374Z,14.74
2023-04-21T22:57:16.627Z,14.68
2023-04-21T22:59:47.097Z,14.61
2023-04-21T23:02:17.574Z,14.65
2023-04-21T23:04:47.951Z,14.58
2023-04-21T23:07:20.318Z,14.43
2023-04-21T23:09:51.150Z,14.54
2023-04-21T23:12:24.233Z,14.55
2023-04-21T23:14:54.903Z,14.57
2023-04-21T23:17:25.175Z,14.56
2023-04-21T23:19:55.642Z,14.56
2023-04-21T23:22:26.371Z,14.52
2023-04-21T23:24:59.132Z,14.48
2023-04-21T23:27:31.975Z,14.41
2023-04-21T23:30:02.382Z,14.27
2023-04-21T23:32:32.793Z,14.20
2023-04-21T23:35:03.060Z,14.14
2023-04-21T23:37:33.610Z,14.11
2023-04-21T23:40:09.258Z,14.06
2023-04-21T23:42:42.517Z,14.03
2023-04-21T23:45:18.405Z,14.01
2023-04-21T23:47:48.763Z,13.97
2023-04-21T23:50:19.123Z,13.96
2023-04-21T23:52:49.382Z,13.91
2023-04-21T23:55:19.737Z,13.79
2023-04-21T23:57:52.730Z,13.68
